Time;durP1;ratioP1;P1;durP2;ratioP2;P2;SDS_P1;SDS_P2;PMS_P1;PMS_P2;Temp;Humidity;BMP_temperature;BMP_pressure;BME280_temperature;BME280_humidity;BME280_pressure;Samples;Min_cycle;Max_cycle;Signal;HPM_P1;HPM_P2
2021/08/14 00:00:13;;;;;;;5.38;1.88;;;17.20;76.80;;;;;;2043882;29;20064;-91
2021/08/14 00:01:13;;;;;;;5.55;1.92;;;17.10;76.80;;;;;;2039280;29;20079;-93
2021/08/14 00:02:14;;;;;;;6.53;1.90;;;17.20;76.90;;;;;;2042260;29;20080;-92
2021/08/14 00:03:15;;;;;;;4.78;1.88;;;17.10;76.90;;;;;;2050160;29;20038;-93
2021/08/14 00:04:15;;;;;;;4.97;1.70;;;17.10;76.90;;;;;;2050120;29;20035;-92
2021/08/14 00:05:16;;;;;;;5.93;1.80;;;17.10;77.00;;;;;;2049772;29;20042;-93
2021/08/14 00:06:17;;;;;;;5.00;1.95;;;17.10;77.10;;;;;;2049019;29;20028;-92
2021/08/14 00:07:18;;;;;;;5.28;1.73;;;17.10;77.20;;;;;;2053417;29;20039;-93
2021/08/14 00:08:18;;;;;;;4.72;1.75;;;17.10;77.30;;;;;;2048416;29;20087;-93
2021/08/14 00:09:19;;;;;;;4.57;1.70;;;17.10;77.30;;;;;;2055916;29;20038;-93
2021/08/14 00:10:20;;;;;;;4.05;1.77;;;17.10;77.30;;;;;;2054668;29;20122;-93
2021/08/14 00:11:20;;;;;;;5.78;2.28;;;17.10;77.30;;;;;;2044079;29;20576;-92
2021/08/14 00:12:21;;;;;;;5.18;1.90;;;17.10;77.30;;;;;;2056352;28;20632;-92
2021/08/14 00:13:22;;;;;;;5.57;2.05;;;17.10;77.30;;;;;;2042968;29;20083;-93
2021/08/14 00:14:22;;;;;;;5.70;2.05;;;17.10;77.30;;;;;;2029403;29;20484;-92
2021/08/14 00:15:23;;;;;;;6.20;2.10;;;17.10;77.30;;;;;;2034780;29;20040;-93
2021/08/14 00:16:24;;;;;;;4.93;1.67;;;17.10;77.30;;;;;;2042869;29;20168;-93
2021/08/14 00:17:25;;;;;;;4.18;1.75;;;17.10;77.30;;;;;;2042930;29;20036;-92
2021/08/14 00:18:25;;;;;;;5.18;1.80;;;17.00;77.40;;;;;;2043468;28;20494;-92
2021/08/14 00:19:28;;;;;;;6.15;2.03;;;17.10;77.50;;;;;;2042734;29;20047;-92
2021/08/14 00:20:28;;;;;;;4.65;2.00;;;17.10;77.50;;;;;;2035406;29;20088;-93
2021/08/14 00:21:30;;;;;;;5.78;1.90;;;17.10;77.50;;;;;;2048574;29;20070;-93
2021/08/14 00:22:31;;;;;;;5.75;2.20;;;17.10;77.50;;;;;;2047371;29;20087;-92
2021/08/14 00:23:32;;;;;;;5.50;2.00;;;17.10;77.50;;;;;;2043697;29;20060;-93
2021/08/14 00:24:32;;;;;;;6.80;1.92;;;17.00;78.10;;;;;;2043314;29;20060;-93
2021/08/14 00:25:33;;;;;;;5.20;2.03;;;17.00;77.60;;;;;;2051266;29;20154;-93
2021/08/14 00:26:34;;;;;;;4.35;2.00;;;17.00;77.70;;;;;;2043119;29;20063;-93
2021/08/14 00:27:34;;;;;;;5.90;2.10;;;16.90;77.80;;;;;;2046144;29;20009;-92
2021/08/14 00:28:36;;;;;;;4.45;1.80;;;16.90;77.90;;;;;;2052553;29;20016;-92
2021/08/14 00:29:38;;;;;;;7.03;2.30;;;16.90;78.00;;;;;;2035583;29;20161;-93
2021/08/14 00:30:38;;;;;;;4.78;2.17;;;16.90;78.00;;;;;;2034683;29;20041;-93
2021/08/14 00:31:39;;;;;;;3.90;1.83;;;16.90;78.00;;;;;;2044582;28;20032;-93
2021/08/14 00:32:40;;;;;;;4.78;1.85;;;16.90;78.10;;;;;;2053077;28;20039;-94
2021/08/14 00:33:40;;;;;;;3.35;1.55;;;16.90;78.10;;;;;;2058334;28;20464;-93
2021/08/14 00:34:41;;;;;;;5.15;1.90;;;16.90;78.10;;;;;;2050003;29;20122;-93
2021/08/14 00:35:42;;;;;;;4.90;1.88;;;16.90;78.20;;;;;;2049726;28;20047;-93
2021/08/14 00:36:42;;;;;;;4.03;1.73;;;16.90;78.20;;;;;;2039317;29;20055;-92
2021/08/14 00:37:43;;;;;;;4.75;1.95;;;16.90;78.20;;;;;;2037298;29;20040;-92
2021/08/14 00:38:44;;;;;;;5.68;2.10;;;16.90;78.20;;;;;;2050737;28;20097;-91
2021/08/14 00:39:44;;;;;;;6.35;1.90;;;16.90;78.20;;;;;;2041534;29;20529;-92
2021/08/14 00:40:45;;;;;;;3.95;1.55;;;17.00;78.30;;;;;;2055015;28;20156;-93
2021/08/14 00:41:46;;;;;;;4.05;1.80;;;17.00;78.30;;;;;;2041809;29;20047;-92
2021/08/14 00:42:46;;;;;;;4.10;1.90;;;17.00;78.30;;;;;;2042198;29;20042;-93
2021/08/14 00:43:48;;;;;;;5.95;2.10;;;17.00;78.20;;;;;;2042162;29;20100;-92
2021/08/14 00:44:48;;;;;;;5.88;1.92;;;16.90;78.20;;;;;;2048057;28;20063;-93
2021/08/14 00:45:49;;;;;;;4.82;1.88;;;17.00;78.40;;;;;;2052953;28;20082;-93
2021/08/14 00:46:50;;;;;;;6.85;2.20;;;16.90;78.30;;;;;;2049402;28;20063;-92
2021/08/14 00:47:52;;;;;;;6.10;2.22;;;17.00;78.40;;;;;;2049708;28;20066;-91
2021/08/14 00:48:53;;;;;;;5.72;1.98;;;17.00;78.40;;;;;;2050129;28;20050;-91
2021/08/14 00:49:54;;;;;;;6.78;2.20;;;16.90;78.40;;;;;;2045915;29;20036;-93
2021/08/14 00:50:55;;;;;;;5.40;2.10;;;17.00;78.50;;;;;;2038932;29;20036;-92
2021/08/14 00:51:56;;;;;;;6.63;2.10;;;17.00;78.50;;;;;;2047000;29;20042;-92
2021/08/14 00:52:57;;;;;;;5.43;1.88;;;17.00;78.50;;;;;;2046129;29;20039;-92
2021/08/14 00:53:57;;;;;;;4.55;1.90;;;17.00;78.50;;;;;;2041513;29;20039;-92
2021/08/14 00:54:58;;;;;;;5.38;2.00;;;17.00;78.40;;;;;;2050994;28;20509;-92
2021/08/14 00:55:59;;;;;;;4.03;1.80;;;17.00;78.40;;;;;;2039188;29;20562;-92
2021/08/14 00:57:00;;;;;;;5.57;1.90;;;17.00;78.40;;;;;;2042173;29;20032;-92
2021/08/14 00:58:01;;;;;;;6.45;1.88;;;17.00;78.40;;;;;;2055136;28;20070;-92
2021/08/14 00:59:03;;;;;;;4.65;1.80;;;17.10;78.50;;;;;;2057511;28;20531;-93
2021/08/14 01:00:05;;;;;;;5.50;2.20;;;17.10;78.50;;;;;;2050277;28;20043;-94
2021/08/14 01:01:06;;;;;;;5.68;2.08;;;17.00;78.50;;;;;;2057652;28;20046;-93
2021/08/14 01:02:07;;;;;;;6.65;2.10;;;17.10;78.60;;;;;;2042130;29;20648;-92
2021/08/14 01:03:08;;;;;;;4.68;1.70;;;17.10;78.70;;;;;;2057431;28;20031;-93
2021/08/14 01:04:10;;;;;;;8.02;2.40;;;17.00;78.70;;;;;;2040768;29;20063;-93
2021/08/14 01:05:12;;;;;;;4.13;1.88;;;17.00;78.70;;;;;;2051250;28;20046;-92
2021/08/14 01:06:19;;;;;;;5.97;2.05;;;17.00;78.70;;;;;;2056016;28;20030;-93
2021/08/14 01:07:20;;;;;;;8.57;2.33;;;17.00;78.80;;;;;;2050973;28;20035;-93
2021/08/14 01:08:20;;;;;;;5.95;1.90;;;17.00;78.70;;;;;;2036171;29;20032;-92
2021/08/14 01:09:21;;;;;;;5.25;1.90;;;17.10;78.80;;;;;;2041417;29;20100;-93
2021/08/14 01:10:25;;;;;;;6.13;2.28;;;17.10;78.80;;;;;;2041910;29;20054;-92
2021/08/14 01:11:27;;;;;;;5.43;2.30;;;17.10;78.80;;;;;;2042368;29;20036;-92
2021/08/14 01:12:27;;;;;;;4.90;1.92;;;17.10;78.80;;;;;;2036153;29;20445;-92
2021/08/14 01:13:31;;;;;;;6.28;2.05;;;17.10;78.80;;;;;;2033420;29;20044;-92
2021/08/14 01:14:32;;;;;;;6.05;1.90;;;17.10;78.90;;;;;;2041451;28;20130;-93
2021/08/14 01:15:33;;;;;;;7.07;2.13;;;17.10;78.90;;;;;;2050450;28;20130;-93
2021/08/14 01:16:34;;;;;;;5.10;1.67;;;17.10;78.90;;;;;;2041612;29;20039;-92
2021/08/14 01:17:36;;;;;;;6.90;2.17;;;17.10;78.90;;;;;;2041809;29;20035;-93
2021/08/14 01:18:41;;;;;;;6.05;2.22;;;17.10;78.90;;;;;;2042032;28;20083;-92
2021/08/14 01:19:45;;;;;;;6.13;2.20;;;17.00;79.00;;;;;;2039535;29;20083;-92
2021/08/14 01:20:48;;;;;;;4.47;1.90;;;17.00;79.00;;;;;;2037720;29;20042;-92
2021/08/14 01:21:52;;;;;;;5.07;2.10;;;17.10;79.10;;;;;;2041906;29;20040;-93
2021/08/14 01:22:52;;;;;;;4.47;1.80;;;17.00;79.00;;;;;;2046231;28;20119;-93
2021/08/14 01:23:54;;;;;;;5.28;1.77;;;17.00;79.10;;;;;;2057216;28;20070;-92
2021/08/14 01:24:55;;;;;;;4.45;1.90;;;17.00;79.20;;;;;;2037746;28;20072;-93
2021/08/14 01:26:09;;;;;;;3.65;1.80;;;17.00;79.20;;;;;;2049897;28;20561;-93
2021/08/14 01:27:11;;;;;;;4.00;1.75;;;17.00;79.30;;;;;;2049906;29;20094;-92
2021/08/14 01:28:13;;;;;;;4.38;2.30;;;17.00;79.30;;;;;;2041004;29;20044;-92
2021/08/14 01:29:15;;;;;;;6.30;1.95;;;16.90;79.20;;;;;;2049987;28;20039;-92
2021/08/14 01:30:16;;;;;;;5.32;2.22;;;16.90;79.30;;;;;;2041948;29;20036;-93
2021/08/14 01:31:19;;;;;;;5.07;1.83;;;16.90;79.40;;;;;;2038654;29;20036;-93
2021/08/14 01:32:19;;;;;;;4.88;1.90;;;16.90;79.50;;;;;;2036436;29;20115;-92
2021/08/14 01:33:20;;;;;;;4.78;2.17;;;16.80;79.50;;;;;;2050308;28;20067;-92
2021/08/14 01:34:21;;;;;;;4.65;1.90;;;16.80;79.60;;;;;;2065251;28;20042;-93
2021/08/14 01:35:22;;;;;;;4.93;2.10;;;16.80;79.70;;;;;;2034219;29;20525;-92
2021/08/14 01:36:23;;;;;;;4.47;2.00;;;16.80;79.80;;;;;;2046653;28;20027;-93
2021/08/14 01:37:23;;;;;;;6.45;2.20;;;16.70;79.80;;;;;;2057417;28;20045;-92
2021/08/14 01:38:24;;;;;;;7.80;2.30;;;16.80;79.90;;;;;;2049638;29;20493;-93
2021/08/14 01:39:25;;;;;;;6.68;2.30;;;16.80;79.90;;;;;;2033638;29;20130;-93
2021/08/14 01:40:26;;;;;;;6.75;2.00;;;16.70;80.00;;;;;;2041962;29;20031;-92
2021/08/14 01:41:28;;;;;;;6.57;2.38;;;16.70;80.10;;;;;;2048954;28;20039;-93
2021/08/14 01:42:28;;;;;;;5.25;2.22;;;16.70;80.20;;;;;;2049553;29;20031;-93
2021/08/14 01:43:29;;;;;;;6.63;2.17;;;16.70;80.30;;;;;;2042378;29;20039;-94
2021/08/14 01:44:31;;;;;;;7.28;2.15;;;16.70;80.30;;;;;;2036726;29;20068;-93
2021/08/14 01:45:32;;;;;;;4.55;2.10;;;16.70;80.30;;;;;;2033847;29;20048;-93
2021/08/14 01:46:36;;;;;;;4.72;1.98;;;16.70;80.30;;;;;;2035619;29;20582;-93
2021/08/14 01:47:37;;;;;;;5.70;2.10;;;16.70;80.30;;;;;;2049930;28;20042;-93
2021/08/14 01:48:38;;;;;;;6.10;2.10;;;16.70;80.20;;;;;;2049519;29;20568;-93
2021/08/14 01:49:38;;;;;;;6.03;2.28;;;16.70;80.30;;;;;;2045068;28;20046;-93
2021/08/14 01:50:39;;;;;;;4.57;2.00;;;16.70;80.30;;;;;;2040914;29;20091;-93
2021/08/14 01:51:40;;;;;;;7.63;2.17;;;16.70;81.00;;;;;;2049706;29;20035;-92
2021/08/14 01:52:40;;;;;;;4.93;1.85;;;16.70;80.40;;;;;;2057696;28;20034;-92
2021/08/14 01:53:52;;;;;;;4.97;2.03;;;16.70;80.40;;;;;;2049509;29;20129;-92
2021/08/14 01:54:53;;;;;;;4.25;1.80;;;16.70;80.40;;;;;;2054701;28;20031;-93
2021/08/14 01:55:54;;;;;;;3.85;1.88;;;16.70;80.40;;;;;;2052844;28;20081;-93
2021/08/14 01:56:54;;;;;;;5.53;2.00;;;16.70;80.30;;;;;;2042289;28;20548;-93
2021/08/14 01:57:55;;;;;;;5.95;2.17;;;16.70;80.30;;;;;;2051439;28;20062;-93
2021/08/14 01:58:56;;;;;;;4.43;2.05;;;16.70;80.40;;;;;;2049627;29;20039;-93
2021/08/14 01:59:56;;;;;;;5.25;2.00;;;16.70;80.40;;;;;;2041426;29;20099;-93
2021/08/14 02:00:57;;;;;;;5.78;2.08;;;16.70;80.40;;;;;;2041222;29;20039;-93
2021/08/14 02:01:57;;;;;;;5.55;2.38;;;16.70;80.40;;;;;;2041508;28;20119;-93
2021/08/14 02:02:58;;;;;;;5.78;2.03;;;16.70;80.50;;;;;;2025511;29;20119;-92
2021/08/14 02:03:59;;;;;;;4.97;2.00;;;16.70;80.50;;;;;;2038773;29;20044;-94
2021/08/14 02:05:00;;;;;;;8.73;2.22;;;16.80;80.50;;;;;;2041563;29;20051;-93
2021/08/14 02:06:02;;;;;;;5.47;2.20;;;16.80;80.50;;;;;;2041516;29;20083;-93
2021/08/14 02:07:03;;;;;;;7.30;2.15;;;16.80;80.50;;;;;;2041709;29;20055;-93
2021/08/14 02:08:04;;;;;;;5.47;1.90;;;16.80;80.50;;;;;;2041290;28;20050;-93
2021/08/14 02:09:05;;;;;;;6.90;2.38;;;16.80;80.50;;;;;;2041717;29;20493;-93
2021/08/14 02:10:06;;;;;;;6.65;2.08;;;16.80;80.50;;;;;;2033649;29;20032;-93
2021/08/14 02:11:18;;;;;;;6.32;2.00;;;16.80;80.60;;;;;;2046213;28;20066;-93
2021/08/14 02:12:19;;;;;;;5.43;2.10;;;16.80;80.60;;;;;;2051996;28;20429;-93
2021/08/14 02:13:20;;;;;;;5.65;1.95;;;16.70;80.60;;;;;;2057337;28;20030;-93
2021/08/14 02:14:21;;;;;;;5.75;2.30;;;16.80;80.70;;;;;;2041418;29;20502;-93
2021/08/14 02:15:21;;;;;;;6.18;2.63;;;16.70;80.70;;;;;;2049168;29;20039;-93
2021/08/14 02:16:23;;;;;;;4.97;2.03;;;16.70;80.70;;;;;;2041501;29;20031;-94
2021/08/14 02:17:24;;;;;;;7.18;2.60;;;16.80;80.90;;;;;;2041246;29;20049;-93
2021/08/14 02:18:25;;;;;;;5.15;2.25;;;16.70;80.80;;;;;;2049219;28;20629;-92
2021/08/14 02:19:25;;;;;;;6.55;2.50;;;16.70;80.80;;;;;;2041691;29;20130;-93
2021/08/14 02:20:26;;;;;;;6.22;2.35;;;16.70;80.90;;;;;;2040777;29;20032;-93
2021/08/14 02:21:27;;;;;;;5.88;2.30;;;16.70;80.90;;;;;;2057669;28;20129;-93
2021/08/14 02:22:28;;;;;;;5.00;2.28;;;16.70;81.00;;;;;;2057601;28;20055;-93
2021/08/14 02:23:28;;;;;;;6.03;2.10;;;16.70;81.00;;;;;;2065986;28;20603;-91
2021/08/14 02:24:29;;;;;;;6.35;2.47;;;16.70;81.10;;;;;;2041888;29;20036;-92
2021/08/14 02:25:30;;;;;;;7.18;2.53;;;16.60;81.10;;;;;;2042598;29;20028;-93
2021/08/14 02:26:30;;;;;;;6.15;2.17;;;16.60;81.10;;;;;;2050484;29;20019;-92
2021/08/14 02:27:31;;;;;;;8.15;2.55;;;16.70;81.20;;;;;;2058666;29;20035;-92
2021/08/14 02:28:32;;;;;;;4.80;2.20;;;16.60;81.10;;;;;;2060438;28;20027;-92
2021/08/14 02:29:33;;;;;;;6.25;2.67;;;16.60;81.10;;;;;;2058984;29;20102;-93
2021/08/14 02:30:34;;;;;;;5.35;2.55;;;16.70;81.20;;;;;;2045224;28;20064;-91
2021/08/14 02:31:35;;;;;;;7.40;2.88;;;16.70;81.20;;;;;;2051124;29;20028;-93
2021/08/14 02:32:35;;;;;;;6.53;2.50;;;16.60;81.10;;;;;;2059053;28;20409;-93
2021/08/14 02:33:36;;;;;;;6.25;2.50;;;16.60;81.20;;;;;;2051189;29;20069;-94
2021/08/14 02:34:37;;;;;;;6.93;2.55;;;16.60;81.20;;;;;;2042981;29;20020;-92
2021/08/14 02:35:37;;;;;;;6.00;2.63;;;16.60;81.30;;;;;;2042802;29;20040;-93
2021/08/14 02:36:38;;;;;;;5.72;2.63;;;16.60;81.30;;;;;;2050282;28;20047;-93
2021/08/14 02:37:39;;;;;;;5.63;2.40;;;16.60;81.30;;;;;;2058495;28;20039;-92
2021/08/14 02:38:40;;;;;;;7.13;2.70;;;16.60;81.30;;;;;;2060142;28;20051;-92
2021/08/14 02:39:41;;;;;;;5.60;2.20;;;16.60;81.30;;;;;;2056590;28;20039;-93
2021/08/14 02:40:45;;;;;;;7.65;2.63;;;16.50;81.40;;;;;;2049260;29;20083;-93
2021/08/14 02:41:46;;;;;;;6.40;2.45;;;16.50;81.50;;;;;;2042436;28;20123;-93
2021/08/14 02:42:47;;;;;;;6.30;2.10;;;16.50;81.50;;;;;;2044496;28;20039;-93
2021/08/14 02:43:48;;;;;;;5.93;2.40;;;16.50;81.60;;;;;;2033654;29;20048;-93
2021/08/14 02:44:48;;;;;;;4.88;2.13;;;16.40;81.60;;;;;;2049189;28;20039;-94
2021/08/14 02:45:49;;;;;;;5.70;2.28;;;16.40;81.80;;;;;;2047848;29;20051;-93
2021/08/14 02:46:50;;;;;;;5.85;2.40;;;16.40;81.90;;;;;;2049346;29;20433;-93
2021/08/14 02:47:50;;;;;;;4.68;2.10;;;16.40;82.00;;;;;;2049260;29;20031;-93
2021/08/14 02:48:51;;;;;;;6.75;2.90;;;16.40;82.10;;;;;;2041018;29;20035;-93
2021/08/14 02:49:52;;;;;;;6.88;2.70;;;16.30;82.00;;;;;;2026069;29;20048;-93
2021/08/14 02:50:52;;;;;;;5.85;2.50;;;16.30;82.00;;;;;;2041563;28;20036;-92
2021/08/14 02:51:53;;;;;;;4.63;2.08;;;16.30;82.10;;;;;;2057306;28;20040;-93
2021/08/14 02:52:54;;;;;;;6.55;2.40;;;16.30;82.10;;;;;;2041251;29;20130;-93
2021/08/14 02:53:56;;;;;;;5.68;2.47;;;16.30;82.10;;;;;;2041075;28;20043;-93
2021/08/14 02:54:57;;;;;;;5.90;2.30;;;16.30;82.20;;;;;;2048975;28;20045;-93
2021/08/14 02:55:57;;;;;;;5.38;2.33;;;16.30;82.20;;;;;;2042798;29;20568;-93
2021/08/14 02:56:58;;;;;;;5.88;2.50;;;16.30;82.30;;;;;;2048534;28;20044;-93
2021/08/14 02:57:59;;;;;;;6.25;2.30;;;16.30;82.30;;;;;;2041162;29;20036;-93
2021/08/14 02:58:59;;;;;;;5.13;2.35;;;16.30;82.30;;;;;;2047870;28;20039;-93
2021/08/14 03:00:00;;;;;;;5.88;2.28;;;16.20;82.40;;;;;;2041250;29;20122;-92
2021/08/14 03:01:01;;;;;;;7.70;2.70;;;16.20;82.40;;;;;;2041500;29;20091;-93
2021/08/14 03:02:01;;;;;;;6.55;2.38;;;16.30;82.50;;;;;;2041855;29;20040;-93
2021/08/14 03:03:03;;;;;;;5.25;2.70;;;16.20;82.50;;;;;;2058102;28;20031;-93
2021/08/14 03:04:03;;;;;;;6.60;2.33;;;16.20;82.50;;;;;;2057578;28;20039;-92
2021/08/14 03:05:05;;;;;;;6.55;2.50;;;16.20;82.50;;;;;;2050214;28;20054;-93
2021/08/14 03:06:22;;;;;;;6.25;2.63;;;16.20;82.50;;;;;;2050751;28;20039;-93
2021/08/14 03:07:22;;;;;;;5.68;2.50;;;16.30;82.50;;;;;;2045664;28;20071;-93
2021/08/14 03:08:23;;;;;;;8.07;2.80;;;16.20;82.50;;;;;;2034905;29;20039;-93
2021/08/14 03:09:24;;;;;;;7.53;2.78;;;16.20;82.50;;;;;;2035019;29;20036;-93
2021/08/14 03:10:25;;;;;;;6.40;2.67;;;16.20;82.50;;;;;;2042863;28;20036;-93
2021/08/14 03:11:26;;;;;;;7.43;2.67;;;16.20;82.50;;;;;;2050858;28;20700;-94
2021/08/14 03:12:27;;;;;;;6.88;2.75;;;16.20;82.60;;;;;;2050965;29;20039;-92
2021/08/14 03:13:27;;;;;;;8.20;2.55;;;16.20;82.60;;;;;;2058244;29;20031;-94
2021/08/14 03:14:28;;;;;;;5.63;2.47;;;16.10;82.60;;;;;;2046014;29;20063;-93
2021/08/14 03:15:29;;;;;;;5.97;2.88;;;16.20;82.70;;;;;;2050008;29;20059;-93
2021/08/14 03:16:29;;;;;;;6.35;2.58;;;16.20;82.80;;;;;;2057127;28;20055;-94
2021/08/14 03:17:30;;;;;;;5.82;2.45;;;16.20;82.90;;;;;;2066728;28;20110;-93
2021/08/14 03:18:31;;;;;;;6.13;2.50;;;16.10;82.90;;;;;;2066729;28;20011;-93
2021/08/14 03:19:33;;;;;;;7.63;2.67;;;16.10;82.90;;;;;;2064071;28;20042;-93
2021/08/14 03:20:34;;;;;;;5.70;2.45;;;16.10;82.90;;;;;;2057403;28;20031;-93
2021/08/14 03:21:34;;;;;;;8.43;2.95;;;16.10;83.00;;;;;;2057251;28;20042;-93
2021/08/14 03:22:35;;;;;;;6.00;2.38;;;16.10;83.00;;;;;;2048126;28;20070;-93
2021/08/14 03:23:36;;;;;;;6.63;2.25;;;16.10;83.00;;;;;;2038287;29;20050;-93
2021/08/14 03:24:38;;;;;;;4.15;1.95;;;16.10;83.00;;;;;;2036713;29;20036;-94
2021/08/14 03:25:39;;;;;;;6.85;2.40;;;16.10;83.10;;;;;;2050892;29;20078;-93
2021/08/14 03:26:40;;;;;;;6.22;2.55;;;16.10;83.10;;;;;;2045500;29;20047;-93
2021/08/14 03:27:40;;;;;;;6.22;2.50;;;16.10;83.10;;;;;;2060705;28;20030;-93
2021/08/14 03:28:41;;;;;;;6.15;2.55;;;16.10;82.60;;;;;;2051227;29;20062;-93
2021/08/14 03:29:42;;;;;;;6.45;2.22;;;16.10;83.20;;;;;;2030212;29;20036;-93
2021/08/14 03:30:43;;;;;;;5.72;2.63;;;16.10;83.20;;;;;;2046186;28;20035;-93
2021/08/14 03:31:43;;;;;;;5.45;2.55;;;16.10;83.30;;;;;;2059213;28;20081;-93
2021/08/14 03:32:45;;;;;;;4.63;2.50;;;16.10;83.30;;;;;;2043035;29;20066;-93
2021/08/14 03:33:46;;;;;;;6.50;2.60;;;16.10;83.30;;;;;;2038269;28;20463;-93
2021/08/14 03:34:46;;;;;;;5.97;2.50;;;16.10;83.30;;;;;;2042615;29;20128;-93
2021/08/14 03:35:47;;;;;;;5.45;2.25;;;16.10;83.30;;;;;;2042614;29;20035;-93
2021/08/14 03:36:47;;;;;;;6.80;2.95;;;16.00;83.30;;;;;;2030486;29;20558;-93
2021/08/14 03:37:48;;;;;;;5.90;2.78;;;16.10;83.30;;;;;;2027347;29;20579;-92
2021/08/14 03:38:49;;;;;;;6.28;2.50;;;16.10;83.30;;;;;;2055006;28;20125;-93
2021/08/14 03:39:49;;;;;;;4.78;2.58;;;16.10;83.30;;;;;;2050484;28;20062;-93
2021/08/14 03:40:50;;;;;;;7.00;2.90;;;16.10;83.30;;;;;;2050905;29;20042;-93
2021/08/14 03:41:51;;;;;;;6.20;2.75;;;16.10;83.30;;;;;;2044297;29;20044;-93
2021/08/14 03:42:52;;;;;;;5.63;2.60;;;16.10;83.40;;;;;;2039029;29;20594;-93
2021/08/14 03:43:53;;;;;;;5.93;2.50;;;16.10;83.30;;;;;;2066686;28;20088;-94
2021/08/14 03:44:54;;;;;;;7.15;2.40;;;16.10;83.30;;;;;;2050353;29;20032;-93
2021/08/14 03:45:55;;;;;;;6.75;2.55;;;16.10;83.40;;;;;;2042561;28;20091;-93
2021/08/14 03:46:56;;;;;;;6.53;2.67;;;16.10;83.40;;;;;;2057076;28;20051;-93
2021/08/14 03:47:56;;;;;;;6.50;2.42;;;16.10;83.40;;;;;;2034988;29;20038;-93
2021/08/14 03:48:57;;;;;;;6.65;2.40;;;16.10;83.40;;;;;;2027077;29;20092;-92
2021/08/14 03:49:58;;;;;;;5.07;2.30;;;16.00;83.40;;;;;;2054784;28;20049;-93
2021/08/14 03:50:58;;;;;;;6.60;2.45;;;16.00;83.50;;;;;;2027110;29;20418;-93
2021/08/14 03:51:59;;;;;;;6.40;2.63;;;16.00;83.60;;;;;;2030341;29;20124;-93
2021/08/14 03:53:00;;;;;;;5.78;2.42;;;16.00;83.70;;;;;;2034928;29;20618;-93
2021/08/14 03:54:00;;;;;;;7.15;2.60;;;16.00;83.70;;;;;;2031934;29;20123;-93
2021/08/14 03:55:02;;;;;;;6.63;2.70;;;16.00;83.70;;;;;;2041723;29;20040;-93
2021/08/14 03:56:03;;;;;;;6.43;2.40;;;16.00;83.70;;;;;;2042103;29;20131;-93
2021/08/14 03:57:04;;;;;;;6.65;2.60;;;16.00;83.70;;;;;;2035197;29;20047;-92
2021/08/14 03:58:04;;;;;;;6.95;2.80;;;16.00;83.70;;;;;;2042346;29;20028;-93
2021/08/14 03:59:05;;;;;;;5.85;2.45;;;16.00;84.30;;;;;;2051211;28;20039;-93
2021/08/14 04:00:06;;;;;;;5.30;2.88;;;16.00;83.70;;;;;;2056861;28;20034;-93
2021/08/14 04:01:07;;;;;;;4.93;2.60;;;16.00;83.70;;;;;;2051125;28;20039;-93
2021/08/14 04:02:08;;;;;;;6.35;2.90;;;16.00;83.70;;;;;;2050948;28;20045;-93
2021/08/14 04:03:08;;;;;;;5.50;2.70;;;16.00;83.70;;;;;;2055991;29;20036;-90
2021/08/14 04:04:09;;;;;;;5.78;2.65;;;16.00;83.70;;;;;;2060560;29;20020;-92
2021/08/14 04:05:10;;;;;;;5.30;2.45;;;16.00;83.70;;;;;;2044714;29;20059;-93
2021/08/14 04:06:10;;;;;;;5.05;2.88;;;16.00;83.70;;;;;;2056845;28;20079;-93
2021/08/14 04:07:12;;;;;;;6.65;2.92;;;16.00;83.70;;;;;;2060393;28;20050;-93
2021/08/14 04:08:13;;;;;;;5.93;2.72;;;16.00;83.70;;;;;;2068413;28;20038;-91
2021/08/14 04:09:14;;;;;;;7.82;2.90;;;16.00;83.70;;;;;;2052545;28;20035;-92
2021/08/14 04:10:14;;;;;;;7.97;2.65;;;16.00;83.70;;;;;;2052303;29;20068;-93
2021/08/14 04:11:15;;;;;;;5.18;2.63;;;16.10;83.80;;;;;;2060387;29;20051;-93
2021/08/14 04:12:16;;;;;;;6.22;2.90;;;16.10;83.80;;;;;;2060412;28;20039;-93
2021/08/14 04:13:16;;;;;;;6.97;2.70;;;16.00;83.70;;;;;;2059269;28;20045;-91
2021/08/14 04:14:17;;;;;;;5.32;2.78;;;16.00;83.70;;;;;;2051872;29;20035;-91
2021/08/14 04:15:18;;;;;;;5.97;2.85;;;16.10;83.70;;;;;;2052356;28;20083;-92
2021/08/14 04:16:18;;;;;;;7.50;2.85;;;16.10;83.70;;;;;;2059569;28;20048;-92
2021/08/14 04:17:20;;;;;;;6.57;2.83;;;16.00;83.70;;;;;;2060190;28;20030;-93
2021/08/14 04:18:21;;;;;;;5.30;2.75;;;16.10;83.70;;;;;;2055076;28;20020;-93
2021/08/14 04:19:22;;;;;;;6.07;2.65;;;16.00;83.70;;;;;;2046992;29;20073;-93
2021/08/14 04:20:22;;;;;;;6.30;2.90;;;16.00;83.80;;;;;;2043810;28;20043;-93
2021/08/14 04:21:23;;;;;;;7.32;2.95;;;16.00;83.90;;;;;;2042953;29;20046;-92
2021/08/14 04:22:24;;;;;;;6.95;3.08;;;16.00;83.90;;;;;;2042937;29;20082;-93
2021/08/14 04:23:24;;;;;;;6.55;3.00;;;16.00;83.90;;;;;;2038488;29;20126;-93
2021/08/14 04:24:25;;;;;;;6.63;3.05;;;16.00;83.90;;;;;;2050523;28;20127;-94
2021/08/14 04:25:26;;;;;;;6.70;2.83;;;16.00;83.90;;;;;;2043162;28;20481;-92
2021/08/14 04:26:29;;;;;;;6.57;3.00;;;16.00;83.80;;;;;;2042597;29;20044;-93
2021/08/14 04:27:30;;;;;;;6.30;2.78;;;16.00;83.80;;;;;;2043355;28;20135;-92
2021/08/14 04:28:31;;;;;;;9.32;2.97;;;16.00;83.90;;;;;;2038753;29;20395;-92
2021/08/14 04:29:33;;;;;;;9.65;3.00;;;16.00;83.90;;;;;;2043893;29;20044;-93
2021/08/14 04:30:33;;;;;;;5.88;3.10;;;16.00;83.90;;;;;;2065402;28;20041;-92
2021/08/14 04:31:34;;;;;;;6.00;2.63;;;16.00;84.00;;;;;;2066745;28;20019;-92
2021/08/14 04:32:35;;;;;;;5.45;2.50;;;16.00;84.00;;;;;;2059677;28;20038;-93
2021/08/14 04:33:36;;;;;;;6.57;2.58;;;15.90;83.90;;;;;;2061582;28;20035;-92
2021/08/14 04:34:37;;;;;;;6.72;2.65;;;16.00;84.00;;;;;;2055985;29;20502;-92
2021/08/14 04:35:37;;;;;;;7.28;3.13;;;15.90;83.90;;;;;;2043098;29;20609;-92
2021/08/14 04:36:38;;;;;;;6.57;2.90;;;15.90;84.00;;;;;;2051948;28;20091;-92
2021/08/14 04:37:39;;;;;;;7.07;2.90;;;15.90;84.10;;;;;;2067850;28;20110;-92
2021/08/14 04:38:39;;;;;;;6.97;2.88;;;15.90;84.10;;;;;;2061355;28;20035;-92
2021/08/14 04:39:40;;;;;;;5.68;2.83;;;15.90;84.10;;;;;;2061125;28;20596;-92
2021/08/14 04:40:41;;;;;;;5.97;2.92;;;15.90;84.10;;;;;;2049865;28;20094;-92
2021/08/14 04:41:43;;;;;;;6.57;3.10;;;15.90;84.20;;;;;;2062449;28;20053;-93
2021/08/14 04:42:44;;;;;;;6.95;2.70;;;15.90;84.10;;;;;;2058542;28;20106;-92
2021/08/14 04:43:45;;;;;;;5.28;2.88;;;15.90;84.20;;;;;;2060358;28;20035;-93
2021/08/14 04:44:45;;;;;;;7.75;3.20;;;15.90;84.30;;;;;;2064370;28;20030;-93
2021/08/14 04:45:47;;;;;;;5.80;2.80;;;15.90;84.40;;;;;;2048711;28;20051;-93
2021/08/14 04:46:48;;;;;;;6.05;2.90;;;15.80;84.30;;;;;;2048717;28;20123;-92
2021/08/14 04:47:50;;;;;;;6.30;3.05;;;15.90;84.40;;;;;;2050546;29;20162;-93
2021/08/14 04:48:51;;;;;;;5.70;2.95;;;15.80;84.40;;;;;;2043752;29;20095;-92
2021/08/14 04:49:51;;;;;;;6.82;2.85;;;15.90;84.50;;;;;;2042343;29;20040;-92
2021/08/14 04:50:52;;;;;;;6.25;3.00;;;15.90;84.40;;;;;;2035245;29;20044;-92
2021/08/14 04:51:54;;;;;;;6.40;3.00;;;15.90;84.40;;;;;;2026552;29;20423;-92
2021/08/14 04:52:54;;;;;;;7.15;3.40;;;15.90;84.30;;;;;;2042283;28;20039;-93
2021/08/14 04:53:56;;;;;;;6.72;2.97;;;15.90;84.30;;;;;;2041743;29;20541;-92
2021/08/14 04:54:57;;;;;;;6.53;3.20;;;15.90;84.30;;;;;;2050379;28;20039;-93
2021/08/14 04:55:58;;;;;;;6.25;3.03;;;15.90;84.30;;;;;;2057450;28;20058;-92
2021/08/14 04:56:59;;;;;;;7.18;3.13;;;15.90;84.30;;;;;;2050098;29;20441;-92
2021/08/14 04:57:59;;;;;;;5.68;2.70;;;15.90;84.30;;;;;;2049706;29;20490;-92
2021/08/14 04:59:00;;;;;;;6.03;3.10;;;15.90;84.40;;;;;;2041389;29;20510;-92
2021/08/14 05:00:01;;;;;;;7.85;3.10;;;15.90;85.00;;;;;;2041658;29;20047;-93
2021/08/14 05:01:02;;;;;;;6.78;2.92;;;15.90;84.40;;;;;;2041335;28;20054;-92
2021/08/14 05:02:03;;;;;;;6.97;3.03;;;15.90;84.40;;;;;;2050016;28;20023;-93
2021/08/14 05:03:04;;;;;;;6.70;3.40;;;15.90;84.40;;;;;;2049147;29;20433;-93
2021/08/14 05:04:04;;;;;;;7.32;3.17;;;15.90;84.40;;;;;;2050014;28;20411;-92
2021/08/14 05:05:06;;;;;;;5.13;2.72;;;16.00;84.50;;;;;;2058163;28;20504;-92
2021/08/14 05:06:07;;;;;;;5.35;2.88;;;15.90;84.50;;;;;;2050157;29;20039;-92
2021/08/14 05:07:09;;;;;;;5.38;2.78;;;15.90;84.50;;;;;;2049919;28;20047;-93
2021/08/14 05:08:10;;;;;;;8.50;3.30;;;15.90;84.50;;;;;;2042746;28;20047;-93
2021/08/14 05:09:11;;;;;;;8.15;3.55;;;15.90;84.50;;;;;;2042177;29;20067;-93
2021/08/14 05:10:15;;;;;;;7.55;3.08;;;15.90;84.50;;;;;;2034128;29;20048;-92
2021/08/14 05:11:15;;;;;;;6.40;3.38;;;15.90;84.50;;;;;;2049854;28;20435;-92
2021/08/14 05:12:17;;;;;;;5.70;3.30;;;15.90;84.50;;;;;;2049980;29;20074;-92
2021/08/14 05:13:18;;;;;;;6.93;3.50;;;15.90;84.50;;;;;;2049247;28;20508;-92
2021/08/14 05:14:18;;;;;;;6.93;3.00;;;15.90;84.60;;;;;;2042028;29;20530;-92
2021/08/14 05:15:19;;;;;;;9.32;3.53;;;15.90;84.70;;;;;;2042827;29;20040;-92
2021/08/14 05:16:22;;;;;;;8.20;3.65;;;15.90;84.70;;;;;;2048757;28;20039;-92
2021/08/14 05:17:22;;;;;;;7.43;3.53;;;15.90;84.70;;;;;;2038847;29;20067;-92
2021/08/14 05:18:23;;;;;;;6.97;3.40;;;15.90;84.70;;;;;;2030674;29;20047;-92